Time;durP1;ratioP1;P1;durP2;ratioP2;P2;SDS_P1;SDS_P2;PMS_P1;PMS_P2;Temp;Humidity;BMP_temperature;BMP_pressure;BME280_temperature;BME280_humidity;BME280_pressure;Samples;Min_cycle;Max_cycle;Signal;HPM_P1;HPM_P2
2021/07/07 00:00:20;;;;;;;13.82;7.43;;;;;;;16.12;61.42;100412.75;5076465;28;20132;-79
2021/07/07 00:02:47;;;;;;;14.75;7.45;;;;;;;16.09;61.54;100423.31;5095450;28;20040;-79
2021/07/07 00:05:15;;;;;;;16.35;7.82;;;;;;;15.95;61.48;100407.84;5060138;28;20143;-77
2021/07/07 00:07:41;;;;;;;20.92;8.13;;;;;;;16.00;61.71;100424.38;5094437;28;20085;-81
2021/07/07 00:10:12;;;;;;;12.80;6.82;;;;;;;15.92;61.76;100418.41;5083481;28;20127;-79
2021/07/07 00:12:39;;;;;;;13.27;6.43;;;;;;;15.92;61.78;100424.53;5056058;28;20048;-75
2021/07/07 00:15:11;;;;;;;13.88;7.45;;;;;;;15.82;61.78;100430.84;5074044;28;20044;-80
2021/07/07 00:17:39;;;;;;;16.83;7.20;;;;;;;15.78;61.99;100432.66;5097008;28;20039;-79
2021/07/07 00:20:07;;;;;;;11.45;7.22;;;;;;;15.72;62.13;100432.78;5094754;28;20035;-81
2021/07/07 00:22:33;;;;;;;15.70;7.63;;;;;;;15.64;62.44;100445.22;5094884;28;20035;-79
2021/07/07 00:25:00;;;;;;;12.98;7.00;;;;;;;15.57;62.83;100443.59;5105441;28;20044;-80
2021/07/07 00:27:26;;;;;;;17.75;7.63;;;;;;;15.47;62.72;100435.88;5095151;28;20060;-77
2021/07/07 00:30:01;;;;;;;14.20;7.35;;;;;;;15.37;63.02;100426.47;5093839;28;20407;-79
2021/07/07 00:32:27;;;;;;;17.35;7.80;;;;;;;15.46;63.16;100446.41;5096202;28;20525;-76
2021/07/07 00:35:02;;;;;;;18.92;7.57;;;;;;;15.32;63.23;100433.56;5103004;28;20040;-77
2021/07/07 00:37:28;;;;;;;15.55;7.07;;;;;;;15.35;63.51;100455.34;5104617;28;20052;-77
2021/07/07 00:39:54;;;;;;;17.55;7.20;;;;;;;15.26;63.63;100450.28;5096857;28;20460;-79
2021/07/07 00:42:20;;;;;;;16.42;7.45;;;;;;;15.24;63.86;100454.66;5094791;28;20039;-81
2021/07/07 00:44:45;;;;;;;14.70;7.38;;;;;;;15.10;63.79;100438.34;5077352;28;20051;-80
2021/07/07 00:47:11;;;;;;;17.65;7.80;;;;;;;15.13;64.10;100456.59;5095743;28;20040;-82
2021/07/07 00:49:37;;;;;;;14.10;7.45;;;;;;;15.07;64.04;100457.56;5114441;28;20036;-78
2021/07/07 00:52:04;;;;;;;14.50;7.68;;;;;;;14.96;64.33;100439.41;5115478;28;20028;-75
2021/07/07 00:54:31;;;;;;;17.35;8.35;;;;;;;15.05;64.44;100469.84;5097661;28;20483;-79
2021/07/07 00:56:59;;;;;;;14.43;6.93;;;;;;;15.02;64.78;100473.38;5109707;28;20039;-77
2021/07/07 00:59:27;;;;;;;16.88;7.82;;;;;;;14.94;64.91;100463.94;5115290;28;20057;-80
2021/07/07 01:01:54;;;;;;;14.13;7.75;;;;;;;14.98;65.24;100476.09;5115351;28;20075;-76
2021/07/07 01:04:20;;;;;;;12.63;7.35;;;;;;;14.97;65.36;100476.97;5114502;28;20039;-80
2021/07/07 01:06:46;;;;;;;14.70;7.15;;;;;;;14.99;65.38;100483.91;5117144;28;20039;-75
2021/07/07 01:09:12;;;;;;;13.02;7.40;;;;;;;14.99;65.43;100483.91;5094433;28;20032;-75
2021/07/07 01:11:38;;;;;;;17.25;7.85;;;;;;;14.90;65.45;100470.94;5099211;28;20048;-79
2021/07/07 01:14:04;;;;;;;14.00;6.78;;;;;;;14.97;65.82;100479.59;5099517;28;20048;-76
2021/07/07 01:16:31;;;;;;;15.90;7.50;;;;;;;14.98;65.88;100484.81;5089577;28;20033;-77
2021/07/07 01:18:57;;;;;;;20.02;7.90;;;;;;;14.96;65.84;100480.50;5107198;28;20044;-77
2021/07/07 01:21:24;;;;;;;15.88;7.60;;;;;;;15.00;66.08;100487.41;5077981;28;20020;-77
2021/07/07 01:23:51;;;;;;;14.00;7.85;;;;;;;15.01;66.01;100494.38;5099212;28;20066;-77
2021/07/07 01:26:17;;;;;;;21.85;8.32;;;;;;;14.95;66.05;100484.84;5091078;28;20594;-76
2021/07/07 01:28:44;;;;;;;13.93;8.32;;;;;;;14.83;66.05;100477.19;5105233;28;20047;-78
2021/07/07 01:31:09;;;;;;;16.85;8.27;;;;;;;14.94;66.24;100496.22;5103834;28;20050;-79
2021/07/07 01:33:36;;;;;;;16.25;8.30;;;;;;;14.88;66.21;100497.19;5103011;28;20467;-78
2021/07/07 01:36:02;;;;;;;15.43;8.23;;;;;;;14.91;66.21;100499.78;5103000;28;20044;-78
2021/07/07 01:38:28;;;;;;;14.95;7.90;;;;;;;14.89;66.17;100495.47;5102757;28;20044;-78
2021/07/07 01:41:01;;;;;;;14.38;7.95;;;;;;;14.95;66.12;100500.56;5105144;28;20035;-78
2021/07/07 01:43:27;;;;;;;20.08;7.90;;;;;;;14.87;66.02;100489.38;5111291;28;20048;-78
2021/07/07 01:45:53;;;;;;;14.18;8.25;;;;;;;14.93;66.40;100502.34;5098537;28;20535;-77
2021/07/07 01:48:19;;;;;;;17.02;7.72;;;;;;;14.95;66.36;100497.09;5089608;28;20051;-77
2021/07/07 01:50:45;;;;;;;12.82;7.72;;;;;;;15.02;66.40;100511.81;5102738;28;20039;-78
2021/07/07 01:53:11;;;;;;;13.95;8.32;;;;;;;15.12;66.61;100516.03;5087022;28;20048;-78
2021/07/07 01:55:37;;;;;;;17.95;8.00;;;;;;;15.17;66.47;100521.19;5100760;28;20040;-78
2021/07/07 01:58:03;;;;;;;15.55;7.85;;;;;;;15.15;66.48;100510.75;5104364;28;20044;-77
2021/07/07 02:00:32;;;;;;;11.73;7.63;;;;;;;15.21;66.65;100515.00;5097887;28;20096;-80
2021/07/07 02:02:59;;;;;;;18.27;8.40;;;;;;;15.30;66.67;100517.50;5063058;28;20085;-82
2021/07/07 02:05:28;;;;;;;16.20;7.68;;;;;;;15.17;66.36;100493.25;5095487;28;20036;-76
2021/07/07 02:07:56;;;;;;;15.13;7.40;;;;;;;15.41;66.44;100529.53;5100034;28;20143;-77
2021/07/07 02:10:22;;;;;;;19.92;8.27;;;;;;;15.45;66.60;100529.44;5067102;28;20180;-84
2021/07/07 02:12:50;;;;;;;18.13;7.75;;;;;;;15.55;66.67;100534.53;5092333;28;20045;-84
2021/07/07 02:15:19;;;;;;;19.85;7.43;;;;;;;15.62;66.53;100534.41;5076962;28;20079;-81
2021/07/07 02:17:47;;;;;;;18.98;8.32;;;;;;;15.69;66.34;100536.94;5070301;28;20544;-78
2021/07/07 02:20:14;;;;;;;18.67;8.35;;;;;;;15.75;66.49;100540.28;5095535;28;20415;-79
2021/07/07 02:22:41;;;;;;;22.25;9.15;;;;;;;15.82;66.38;100541.03;5094844;28;20043;-79
2021/07/07 02:25:17;;;;;;;24.80;8.75;;;;;;;15.91;66.37;100530.41;5078750;28;20040;-80
2021/07/07 02:27:43;;;;;;;21.38;9.43;;;;;;;15.86;66.07;100521.75;5078951;28;20533;-80
2021/07/07 02:30:11;;;;;;;17.63;8.65;;;;;;;16.05;66.06;100537.13;5096012;28;20067;-79
2021/07/07 02:32:37;;;;;;;16.85;8.77;;;;;;;16.07;66.21;100524.84;5095456;28;20044;-83
2021/07/07 02:35:07;;;;;;;17.35;8.40;;;;;;;16.25;66.21;100542.00;5078640;28;20104;-79
2021/07/07 02:37:33;;;;;;;23.35;8.93;;;;;;;16.33;65.95;100542.69;5079636;28;20564;-77
2021/07/07 02:40:00;;;;;;;16.73;8.90;;;;;;;16.26;65.60;100510.44;5095739;28;20089;-81
2021/07/07 02:42:26;;;;;;;12.75;8.13;;;;;;;16.40;65.69;100511.94;5097417;28;20044;-78
2021/07/07 02:44:52;;;;;;;15.90;8.57;;;;;;;16.70;65.55;100544.53;5079138;28;20043;-77
2021/07/07 02:47:18;;;;;;;18.75;8.77;;;;;;;16.83;65.24;100544.25;5103694;28;20060;-76
2021/07/07 02:49:44;;;;;;;19.27;8.38;;;;;;;16.96;65.10;100556.25;5107978;28;20353;-76
2021/07/07 02:52:10;;;;;;;23.25;8.85;;;;;;;17.00;64.76;100538.63;5096554;28;20042;-78
2021/07/07 02:54:35;;;;;;;23.27;8.75;;;;;;;17.14;64.77;100547.03;5103560;28;20122;-78
2021/07/07 02:57:01;;;;;;;18.95;9.05;;;;;;;17.33;64.59;100551.84;5064657;28;20036;-80
2021/07/07 02:59:27;;;;;;;14.98;8.13;;;;;;;17.39;64.17;100546.44;5096123;28;20052;-80
2021/07/07 03:01:53;;;;;;;21.42;8.57;;;;;;;17.48;64.11;100549.75;5096080;28;20097;-79
2021/07/07 03:04:19;;;;;;;17.65;8.85;;;;;;;17.55;63.94;100554.81;5096072;28;20044;-79
2021/07/07 03:06:45;;;;;;;16.35;8.35;;;;;;;17.65;63.75;100558.06;5102072;28;20151;-80
2021/07/07 03:09:11;;;;;;;23.10;8.25;;;;;;;17.75;63.75;100558.69;5106504;28;20048;-79
2021/07/07 03:11:38;;;;;;;22.70;9.93;;;;;;;17.76;63.26;100540.19;5084619;28;20055;-78
2021/07/07 03:14:05;;;;;;;16.70;8.38;;;;;;;18.04;62.99;100563.16;5079300;28;20071;-77
2021/07/07 03:16:40;;;;;;;14.13;7.45;;;;;;;18.15;62.92;100567.28;5077313;28;20044;-76
2021/07/07 03:19:06;;;;;;;14.25;7.35;;;;;;;18.32;62.46;100574.69;5095293;28;20031;-80
2021/07/07 03:21:32;;;;;;;20.67;8.30;;;;;;;18.49;62.06;100572.44;5093411;28;20040;-80
2021/07/07 03:23:58;;;;;;;12.57;6.60;;;;;;;18.63;61.87;100569.41;5093645;28;20047;-81
2021/07/07 03:26:24;;;;;;;13.93;7.20;;;;;;;18.72;61.33;100560.34;5092960;28;20032;-77
2021/07/07 03:28:50;;;;;;;11.60;7.57;;;;;;;18.83;60.88;100565.28;5094583;28;20071;-79
2021/07/07 03:31:19;;;;;;;15.68;7.38;;;;;;;18.94;60.79;100567.59;5094477;28;20046;-80
2021/07/07 03:33:45;;;;;;;12.45;6.78;;;;;;;19.05;60.10;100554.94;5094493;28;20423;-76
2021/07/07 03:36:12;;;;;;;11.93;7.57;;;;;;;19.23;59.77;100566.69;5096575;28;20035;-78
2021/07/07 03:38:38;;;;;;;12.40;7.30;;;;;;;19.30;59.42;100564.69;5085923;28;20044;-77
2021/07/07 03:41:03;;;;;;;12.80;7.22;;;;;;;19.42;59.03;100569.56;5101019;28;20096;-76
2021/07/07 03:43:29;;;;;;;13.82;7.82;;;;;;;19.46;58.54;100561.53;5094308;28;20495;-79
2021/07/07 03:45:55;;;;;;;10.43;7.35;;;;;;;19.57;57.82;100573.44;5094897;28;20122;-81
2021/07/07 03:48:21;;;;;;;14.02;7.88;;;;;;;19.72;57.40;100573.88;5094838;28;20099;-76
2021/07/07 03:50:47;;;;;;;15.23;8.35;;;;;;;19.91;56.58;100583.81;5075846;28;20032;-79
2021/07/07 03:53:13;;;;;;;16.30;9.70;;;;;;;20.02;56.17;100586.91;5094524;28;20044;-80
2021/07/07 03:55:40;;;;;;;18.38;10.90;;;;;;;20.21;55.59;100594.16;5105956;28;20031;-77
2021/07/07 03:58:05;;;;;;;18.27;11.05;;;;;;;20.31;55.18;100585.00;5076071;28;20036;-78
2021/07/07 04:00:32;;;;;;;18.05;10.07;;;;;;;20.49;54.76;100577.28;5093196;28;20035;-80
2021/07/07 04:02:59;;;;;;;15.05;10.50;;;;;;;20.72;54.04;100590.50;5093891;28;20040;-82
2021/07/07 04:05:25;;;;;;;16.70;9.57;;;;;;;20.75;53.74;100587.72;5094766;28;20105;-79
2021/07/07 04:07:51;;;;;;;13.02;8.93;;;;;;;20.95;53.90;100596.69;5092709;28;20097;-77
2021/07/07 04:10:18;;;;;;;15.00;9.13;;;;;;;21.12;53.59;100598.69;5079490;28;20045;-76
2021/07/07 04:12:46;;;;;;;9.73;7.68;;;;;;;21.29;53.59;100589.19;5072906;28;20080;-76
2021/07/07 04:15:14;;;;;;;13.68;7.60;;;;;;;21.53;52.98;100600.53;5089279;28;20040;-77
2021/07/07 04:17:40;;;;;;;12.73;7.80;;;;;;;21.66;52.78;100583.25;5084752;28;20126;-78
2021/07/07 04:20:10;;;;;;;12.18;6.82;;;;;;;21.84;51.88;100588.66;5091962;28;20035;-77
2021/07/07 04:22:36;;;;;;;10.65;7.03;;;;;;;21.96;51.36;100590.75;5093598;28;20046;-79
2021/07/07 04:25:06;;;;;;;13.13;7.00;;;;;;;21.95;51.12;100589.06;5094714;28;20063;-79
2021/07/07 04:27:32;;;;;;;11.50;6.97;;;;;;;22.11;50.80;100589.22;5095313;28;20046;-77
2021/07/07 04:29:58;;;;;;;13.25;7.22;;;;;;;22.23;50.04;100598.41;5092819;28;20462;-77
2021/07/07 04:32:24;;;;;;;17.65;7.95;;;;;;;22.29;49.76;100599.91;5092259;28;20475;-78
2021/07/07 04:34:53;;;;;;;10.48;7.40;;;;;;;22.35;49.21;100593.50;5094211;28;20040;-76
2021/07/07 04:37:18;;;;;;;13.52;8.18;;;;;;;22.52;49.47;100593.63;5092510;28;20050;-77
2021/07/07 04:39:44;;;;;;;10.45;7.93;;;;;;;22.65;49.13;100591.25;5091935;28;20071;-80
2021/07/07 04:42:10;;;;;;;12.43;9.00;;;;;;;22.75;48.84;100591.69;5092277;28;20127;-79
2021/07/07 04:44:36;;;;;;;13.65;10.60;;;;;;;22.96;48.69;100575.66;5093146;28;20097;-78
2021/07/07 04:47:03;;;;;;;18.00;9.00;;;;;;;23.19;48.36;100587.78;5093265;28;20043;-77
2021/07/07 04:49:29;;;;;;;13.18;8.35;;;;;;;23.36;48.15;100594.13;5093236;28;20406;-78
2021/07/07 04:51:55;;;;;;;12.15;8.32;;;;;;;23.52;47.68;100603.03;5091902;28;20069;-78
2021/07/07 04:54:21;;;;;;;9.80;6.60;;;;;;;23.60;46.87;100600.84;5075517;28;20043;-80
2021/07/07 04:56:48;;;;;;;10.52;5.95;;;;;;;23.68;46.74;100599.56;5094443;28;20131;-75
2021/07/07 04:59:14;;;;;;;9.98;6.80;;;;;;;23.76;45.82;100598.25;5096935;28;20079;-76
2021/07/07 05:01:41;;;;;;;12.02;6.78;;;;;;;23.90;45.58;100594.88;5105371;28;20135;-80
2021/07/07 05:04:06;;;;;;;9.35;6.32;;;;;;;24.02;45.28;100588.09;5092025;28;20426;-77
2021/07/07 05:06:32;;;;;;;8.07;6.53;;;;;;;24.19;44.81;100596.94;5093035;28;20040;-78
2021/07/07 05:08:58;;;;;;;11.35;6.72;;;;;;;24.29;44.56;100603.50;5091618;28;20157;-77
2021/07/07 05:11:24;;;;;;;12.40;6.10;;;;;;;24.41;44.42;100593.13;5072975;28;20075;-78
2021/07/07 05:13:50;;;;;;;11.05;6.40;;;;;;;24.49;43.81;100590.94;5072409;28;20044;-79
2021/07/07 05:16:16;;;;;;;12.52;6.22;;;;;;;24.72;43.79;100597.66;5071873;28;20067;-77
2021/07/07 05:18:42;;;;;;;7.40;5.97;;;;;;;24.88;43.46;100605.66;5091969;28;20063;-78
2021/07/07 05:21:08;;;;;;;12.32;6.03;;;;;;;24.98;43.22;100603.31;5093479;28;20479;-78
2021/07/07 05:23:35;;;;;;;8.18;5.53;;;;;;;25.20;43.35;100616.28;5076135;28;20135;-77
2021/07/07 05:26:02;;;;;;;15.40;5.45;;;;;;;25.36;42.98;100616.25;5083458;28;20055;-75
2021/07/07 05:28:29;;;;;;;8.50;4.97;;;;;;;25.46;42.82;100618.41;5104341;28;20047;-76
2021/07/07 05:30:57;;;;;;;8.75;4.70;;;;;;;25.52;42.07;100620.72;5098490;28;20040;-75
2021/07/07 05:33:29;;;;;;;11.68;5.93;;;;;;;25.47;41.82;100621.00;5093096;28;20073;-80
2021/07/07 05:35:55;;;;;;;8.77;4.80;;;;;;;25.55;42.12;100610.72;5076267;28;20054;-77
2021/07/07 05:38:30;;;;;;;8.85;4.82;;;;;;;25.60;41.15;100598.94;5076206;28;20116;-76
2021/07/07 05:40:59;;;;;;;8.35;4.97;;;;;;;25.75;40.77;100618.50;5074923;28;20051;-78
2021/07/07 05:43:25;;;;;;;9.52;5.85;;;;;;;25.82;40.80;100615.34;5094945;28;20043;-78
2021/07/07 05:45:52;;;;;;;10.27;5.18;;;;;;;25.90;40.44;100617.56;5097846;28;20039;-76
2021/07/07 05:48:18;;;;;;;8.77;5.15;;;;;;;25.95;40.44;100619.94;5096390;28;20036;-76
2021/07/07 05:50:44;;;;;;;10.35;5.65;;;;;;;26.16;40.61;100629.31;5095887;28;20147;-79
2021/07/07 05:53:10;;;;;;;8.60;5.50;;;;;;;26.56;40.60;100604.63;5094403;28;20059;-77
2021/07/07 05:55:37;;;;;;;18.52;5.90;;;;;;;27.56;39.17;100617.81;5096714;28;20063;-78
2021/07/07 05:58:13;;;;;;;13.43;6.25;;;;;;;29.52;37.03;100564.63;5097630;28;20040;-76
2021/07/07 06:00:45;;;;;;;13.23;4.85;;;;;;;32.08;33.99;100586.00;5098585;28;20632;-77
2021/07/07 06:03:11;;;;;;;10.00;4.97;;;;;;;33.63;30.87;100574.78;5099159;28;20040;-77
2021/07/07 06:05:47;;;;;;;7.78;3.60;;;;;;;35.01;28.39;100601.19;5100809;28;20043;-76
2021/07/07 06:08:15;;;;;;;8.90;3.97;;;;;;;36.55;27.12;100597.16;5111272;28;20419;-78
2021/07/07 06:10:45;;;;;;;6.65;3.60;;;;;;;38.00;25.13;100588.56;5098905;28;20037;-76
2021/07/07 06:13:13;;;;;;;8.65;3.25;;;;;;;39.10;23.49;100594.09;5095325;28;20047;-78
2021/07/07 06:15:40;;;;;;;8.60;3.40;;;;;;;39.76;22.42;100588.09;5095085;28;20036;-78
2021/07/07 06:18:06;;;;;;;10.50;4.13;;;;;;;39.78;21.40;100588.75;5108261;28;20047;-77
2021/07/07 06:20:33;;;;;;;8.73;6.80;;;;;;;41.07;20.02;100595.53;5114764;28;20123;-76
2021/07/07 06:22:59;;;;;;;7.72;3.80;;;;;;;41.48;18.80;100576.78;5108971;28;20040;-77
2021/07/07 06:25:26;;;;;;;8.95;6.28;;;;;;;42.42;18.22;100588.28;5114609;28;20040;-75
2021/07/07 06:27:52;;;;;;;8.23;3.15;;;;;;;43.44;17.65;100584.63;5110320;28;20040;-77
2021/07/07 06:30:20;;;;;;;3.60;2.47;;;;;;;43.63;17.00;100593.88;5097430;28;20075;-79
2021/07/07 06:32:48;;;;;;;5.10;2.55;;;;;;;43.66;16.66;100604.41;5079380;28;20042;-80
2021/07/07 06:35:16;;;;;;;6.82;3.30;;;;;;;43.94;16.36;100608.78;5096639;28;20050;-80
2021/07/07 06:37:42;;;;;;;2.85;2.50;;;;;;;43.81;15.67;100606.91;5078800;28;20041;-76
2021/07/07 06:40:09;;;;;;;6.88;3.35;;;;;;;44.41;15.29;100596.81;5095875;28;20068;-79
2021/07/07 06:42:34;;;;;;;2.83;2.10;;;;;;;44.37;15.25;100607.34;5096659;28;20158;-78
2021/07/07 06:45:01;;;;;;;4.88;2.53;;;;;;;44.44;14.84;100596.38;5095566;28;20044;-80
2021/07/07 06:47:28;;;;;;;2.95;2.22;;;;;;;45.31;13.70;100605.94;5095274;28;20032;-79
2021/07/07 06:49:54;;;;;;;4.93;2.30;;;;;;;45.60;14.01;100590.66;5095124;28;20470;-78
2021/07/07 06:52:20;;;;;;;3.10;2.53;;;;;;;45.71;13.15;100589.91;5078757;28;20039;-80
2021/07/07 06:54:47;;;;;;;5.80;4.60;;;;;;;45.63;13.02;100603.94;5096640;28;20051;-78
2021/07/07 06:57:13;;;;;;;3.03;2.30;;;;;;;45.65;12.60;100599.09;5094665;28;20043;-77
2021/07/07 06:59:38;;;;;;;5.25;2.00;;;;;;;46.76;12.14;100594.53;5096419;28;20035;-78
2021/07/07 07:02:04;;;;;;;2.35;2.00;;;;;;;48.07;11.39;100603.69;5077940;28;20043;-81
2021/07/07 07:04:31;;;;;;;2.60;2.33;;;;;;;48.77;10.80;100594.53;5096430;28;20063;-80
2021/07/07 07:06:58;;;;;;;3.13;2.30;;;;;;;48.92;10.33;100599.44;5094474;28;20103;-80
2021/07/07 07:09:25;;;;;;;2.72;1.70;;;;;;;49.20;10.03;100597.69;5090506;28;20053;-80
2021/07/07 07:11:51;;;;;;;2.88;1.80;;;;;;;49.51;9.69;100603.72;5076069;28;20056;-76
2021/07/07 07:14:17;;;;;;;7.90;2.40;;;;;;;49.48;9.85;100605.03;5072981;28;20041;-80
2021/07/07 07:16:44;;;;;;;4.00;2.28;;;;;;;49.15;9.73;100591.00;5062893;28;20035;-81
2021/07/07 07:19:11;;;;;;;6.78;2.10;;;;;;;49.22;9.83;100590.81;5078317;28;20096;-79
2021/07/07 07:21:37;;;;;;;2.35;1.98;;;;;;;50.08;9.05;100596.16;5096259;28;20095;-80
2021/07/07 07:24:04;;;;;;;3.72;2.35;;;;;;;49.97;8.80;100601.56;5079212;28;20047;-79
2021/07/07 07:26:30;;;;;;;4.63;2.63;;;;;;;49.04;8.94;100593.81;5079578;28;20043;-78
2021/07/07 07:28:57;;;;;;;6.05;2.60;;;;;;;48.42;9.87;100588.09;5096167;28;20040;-76
2021/07/07 07:31:23;;;;;;;4.85;2.20;;;;;;;49.56;9.17;100574.22;5095687;28;20035;-80
2021/07/07 07:33:50;;;;;;;4.97;2.78;;;;;;;48.80;9.20;100583.81;5095862;28;20036;-77
2021/07/07 07:36:16;;;;;;;5.40;3.10;;;;;;;47.40;9.90;100591.16;5100531;28;20135;-76
2021/07/07 07:38:46;;;;;;;6.30;2.45;;;;;;;48.24;9.59;100587.16;5101970;28;20040;-78
2021/07/07 07:41:12;;;;;;;4.78;2.60;;;;;;;49.82;8.86;100587.53;5101111;28;20036;-79
2021/07/07 07:43:38;;;;;;;3.15;2.17;;;;;;;49.82;8.76;100582.00;5077699;28;20079;-79
2021/07/07 07:46:04;;;;;;;5.40;2.55;;;;;;;49.13;8.19;100592.38;5094019;28;20039;-80
2021/07/07 07:48:30;;;;;;;3.67;2.13;;;;;;;48.82;8.67;100581.63;5093895;28;20047;-77
2021/07/07 07:50:57;;;;;;;2.80;2.38;;;;;;;49.79;8.56;100588.06;5093242;28;20134;-79
2021/07/07 07:53:23;;;;;;;5.70;2.60;;;;;;;49.95;8.44;100601.00;5093156;28;20058;-81
2021/07/07 07:55:49;;;;;;;9.38;2.00;;;;;;;50.55;8.07;100594.72;5093294;28;20068;-77
2021/07/07 07:58:19;;;;;;;4.53;2.42;;;;;;;51.18;7.61;100600.53;5092800;28;20051;-79
2021/07/07 08:00:49;;;;;;;4.18;2.30;;;;;;;51.14;7.61;100593.03;5076669;28;20514;-80
2021/07/07 08:03:15;;;;;;;2.60;2.40;;;;;;;51.41;7.83;100601.25;5095672;28;20078;-77
2021/07/07 08:05:42;;;;;;;3.00;2.53;;;;;;;50.21;7.68;100595.75;5077988;28;20052;-76
2021/07/07 08:08:09;;;;;;;3.65;2.20;;;;;;;50.56;7.92;100593.63;5094582;28;20345;-81
2021/07/07 08:10:36;;;;;;;4.60;3.00;;;;;;;50.88;8.05;100604.72;5079893;28;20082;-80
2021/07/07 08:13:03;;;;;;;5.15;2.53;;;;;;;50.40;7.94;100601.78;5073784;28;20428;-78
2021/07/07 08:15:29;;;;;;;2.58;2.35;;;;;;;49.07;8.51;100594.22;5038966;28;20044;-77
2021/07/07 08:17:56;;;;;;;5.85;2.35;;;;;;;48.64;8.34;100588.19;5102940;28;20066;-78
2021/07/07 08:20:23;;;;;;;3.40;2.50;;;;;;;49.07;7.80;100607.16;5087019;28;20032;-78
2021/07/07 08:22:50;;;;;;;2.80;2.45;;;;;;;48.67;8.42;100603.41;5095477;28;20495;-80
2021/07/07 08:25:19;;;;;;;4.35;2.10;;;;;;;49.00;8.38;100602.63;5092866;28;20534;-79
2021/07/07 08:27:46;;;;;;;3.80;2.70;;;;;;;49.30;6.86;100620.78;5092960;28;20130;-80
2021/07/07 08:30:14;;;;;;;3.03;2.60;;;;;;;49.09;7.88;100607.75;5058392;28;20035;-82
2021/07/07 08:32:40;;;;;;;4.38;3.03;;;;;;;49.11;8.12;100625.72;5093684;28;20451;-79
2021/07/07 08:35:08;;;;;;;3.53;3.00;;;;;;;47.90;8.33;100624.75;5092178;28;20534;-79
2021/07/07 08:37:34;;;;;;;2.58;2.28;;;;;;;48.24;8.80;100608.41;5092168;28;20063;-79
2021/07/07 08:40:02;;;;;;;6.80;2.40;;;;;;;49.40;8.20;100620.09;5093192;28;20035;-79
2021/07/07 08:42:34;;;;;;;6.28;3.03;;;;;;;47.93;8.91;100624.28;5093703;28;20131;-76
2021/07/07 08:45:01;;;;;;;5.45;2.10;;;;;;;47.94;9.04;100632.34;5092429;28;20038;-78
2021/07/07 08:47:28;;;;;;;4.40;2.53;;;;;;;47.69;9.18;100623.50;5093939;28;20036;-78
2021/07/07 08:49:54;;;;;;;4.10;2.58;;;;;;;49.39;8.34;100603.78;5092266;28;20077;-79
2021/07/07 08:52:20;;;;;;;7.20;2.30;;;;;;;49.98;7.66;100617.06;5092552;28;20047;-78
2021/07/07 08:54:48;;;;;;;3.63;2.03;;;;;;;50.67;7.76;100608.41;5091945;28;20141;-77
2021/07/07 08:57:13;;;;;;;2.63;2.42;;;;;;;51.40;6.98;100602.34;5058221;28;20043;-79
2021/07/07 08:59:40;;;;;;;6.35;2.85;;;;;;;52.46;6.72;100597.78;5092205;28;20032;-81
2021/07/07 09:02:08;;;;;;;3.65;2.78;;;;;;;53.44;6.05;100611.66;5091583;28;20040;-76
2021/07/07 09:04:37;;;;;;;2.90;2.67;;;;;;;54.22;6.22;100600.19;5093849;28;20122;-75
2021/07/07 09:07:07;;;;;;;3.00;2.75;;;;;;;52.94;6.73;100605.91;5092574;28;20032;-77
2021/07/07 09:09:42;;;;;;;10.10;3.50;;;;;;;53.09;6.27;100603.09;5084955;28;20516;-81
2021/07/07 09:12:29;;;;;;;5.50;3.08;;;;;;;53.44;5.96;100603.31;5072328;28;20051;-79
2021/07/07 09:15:07;;;;;;;5.38;3.20;;;;;;;51.94;7.07;100609.56;5074968;28;20412;-79
2021/07/07 09:17:48;;;;;;;3.00;2.80;;;;;;;49.97;7.72;100609.00;5083241;28;20046;-78
2021/07/07 09:20:42;;;;;;;3.22;2.92;;;;;;;48.85;8.48;100600.47;5092885;28;20115;-78
2021/07/07 09:23:17;;;;;;;6.78;2.60;;;;;;;50.27;8.19;100610.50;5077110;28;20056;-80
2021/07/07 09:26:02;;;;;;;4.07;2.45;;;;;;;51.38;7.54;100587.94;5098406;28;20446;-75
2021/07/07 09:28:32;;;;;;;5.22;2.40;;;;;;;51.50;6.96;100599.66;5097030;28;20098;-79
2021/07/07 09:31:02;;;;;;;3.85;3.00;;;;;;;51.58;7.11;100583.63;5094797;28;20414;-78
2021/07/07 09:33:35;;;;;;;4.90;2.97;;;;;;;50.90;6.66;100612.78;5102073;28;20047;-78
2021/07/07 09:36:22;;;;;;;5.43;2.55;;;;;;;49.70;7.61;100598.69;5100498;28;20043;-78
2021/07/07 09:38:50;;;;;;;4.05;3.10;;;;;;;49.40;7.70;100592.47;5080710;28;20032;-79
2021/07/07 09:41:21;;;;;;;2.87;2.47;;;;;;;49.18;8.11;100589.69;5097128;28;20047;-79
2021/07/07 09:43:52;;;;;;;5.25;2.65;;;;;;;48.65;8.60;100594.56;5081504;28;20040;-80
2021/07/07 09:46:20;;;;;;;4.60;2.65;;;;;;;49.42;7.86;100572.94;5081167;28;20512;-77
2021/07/07 09:48:51;;;;;;;4.47;2.97;;;;;;;48.75;8.62;100583.72;5097195;28;20058;-82
2021/07/07 09:51:17;;;;;;;4.00;2.90;;;;;;;49.42;8.12;100601.38;5081127;28;20102;-80
2021/07/07 09:53:44;;;;;;;4.38;2.50;;;;;;;48.24;8.78;100587.16;5096348;28;20142;-78
2021/07/07 09:56:11;;;;;;;3.05;2.45;;;;;;;47.66;8.79;100589.84;5079064;28;20044;-78
2021/07/07 09:58:36;;;;;;;3.40;2.38;;;;;;;47.39;9.01;100583.13;5078624;28;20043;-79
2021/07/07 10:01:03;;;;;;;2.63;2.42;;;;;;;46.41;9.16;100582.31;5095208;28;20040;-81
2021/07/07 10:03:33;;;;;;;6.50;2.70;;;;;;;46.36;9.78;100587.66;5078127;28;20112;-79
2021/07/07 10:05:59;;;;;;;;;;;;;;;46.57;9.33;100589.06;5067791;28;20040;-78
2021/07/07 10:08:26;;;;;;;5.38;2.60;;;;;;;45.52;9.72;100571.72;5095321;28;20011;-79
2021/07/07 10:10:53;;;;;;;2.63;2.40;;;;;;;44.62;10.40;100579.19;5076012;28;20603;-80
2021/07/07 10:13:20;;;;;;;3.72;2.90;;;;;;;44.73;10.67;100583.13;5075820;28;20131;-81
2021/07/07 10:15:47;;;;;;;3.00;2.35;;;;;;;45.64;10.19;100578.19;5090900;28;20086;-79
2021/07/07 10:18:13;;;;;;;3.20;2.67;;;;;;;46.90;9.79;100570.38;5072910;28;20503;-80
2021/07/07 10:20:39;;;;;;;4.88;2.72;;;;;;;46.87;9.54;100587.41;5060195;28;20085;-79
2021/07/07 10:23:08;;;;;;;4.40;2.67;;;;;;;45.68;9.92;100592.28;5102636;28;20036;-77
2021/07/07 10:25:38;;;;;;;2.73;2.30;;;;;;;45.66;10.20;100588.94;5104297;28;20074;-80
2021/07/07 10:28:08;;;;;;;2.83;2.13;;;;;;;45.55;10.04;100568.53;5096117;28;20503;-82
2021/07/07 10:30:59;;;;;;;4.32;2.13;;;;;;;45.69;9.55;100574.75;5095402;28;20036;-78
2021/07/07 10:33:35;;;;;;;4.93;2.30;;;;;;;42.96;11.15;100563.75;5104102;28;20036;-79
2021/07/07 10:36:16;;;;;;;4.13;2.50;;;;;;;40.59;12.26;100585.19;5097320;28;20500;-78
2021/07/07 10:38:55;;;;;;;;;;;;;;;38.94;13.96;100581.47;5096744;28;20599;-79
2021/07/07 10:41:46;;;;;;;3.53;2.53;;;;;;;37.79;14.63;100576.38;5094722;28;19927;-77
2021/07/07 10:44:25;;;;;;;4.60;2.42;;;;;;;37.26;15.34;100580.47;5077167;28;20043;-76
2021/07/07 10:46:57;;;;;;;6.30;2.65;;;;;;;36.15;15.96;100577.84;5100372;28;20044;-78
2021/07/07 10:49:27;;;;;;;4.80;2.67;;;;;;;35.82;17.06;100577.66;5107420;28;20074;-75
2021/07/07 10:52:00;;;;;;;3.08;2.78;;;;;;;34.97;17.43;100585.28;5106567;28;20044;-78
2021/07/07 10:54:30;;;;;;;5.38;2.60;;;;;;;34.46;18.29;100582.19;5098487;28;20040;-77
2021/07/07 10:56:57;;;;;;;2.92;2.30;;;;;;;34.38;18.31;100561.31;5094466;28;20131;-80
2021/07/07 10:59:40;;;;;;;3.67;2.50;;;;;;;34.44;18.48;100570.69;5094177;28;20040;-79
2021/07/07 11:02:16;;;;;;;4.75;2.30;;;;;;;34.36;18.43;100578.63;5095590;28;20043;-78
2021/07/07 11:04:48;;;;;;;3.75;2.65;;;;;;;33.48;19.81;100571.69;5077142;28;20043;-77
2021/07/07 11:07:27;;;;;;;5.10;2.50;;;;;;;33.35;20.12;100572.81;5093996;28;20515;-78
2021/07/07 11:09:55;;;;;;;5.60;2.30;;;;;;;33.03;20.79;100576.66;5084101;28;20044;-79
2021/07/07 11:12:37;;;;;;;2.88;2.10;;;;;;;32.67;21.00;100588.91;5075970;28;20040;-77
2021/07/07 11:15:07;;;;;;;3.08;2.53;;;;;;;32.04;21.51;100582.75;5062151;28;20044;-77
2021/07/07 11:17:35;;;;;;;3.05;2.03;;;;;;;31.68;21.64;100583.09;5120779;28;20043;-78
2021/07/07 11:20:14;;;;;;;5.80;2.15;;;;;;;31.53;22.35;100563.75;5107901;28;20173;-76
2021/07/07 11:22:43;;;;;;;4.05;2.47;;;;;;;31.56;22.31;100581.44;5105829;28;20047;-77
2021/07/07 11:25:15;;;;;;;3.55;2.53;;;;;;;31.46;22.71;100581.38;5107208;28;20161;-76
2021/07/07 11:27:42;;;;;;;3.33;2.42;;;;;;;31.11;22.77;100566.38;5108187;28;20052;-76